Time;durP1;ratioP1;P1;durP2;ratioP2;P2;SDS_P1;SDS_P2;PMS_P1;PMS_P2;Temp;Humidity;BMP_temperature;BMP_pressure;BME280_temperature;BME280_humidity;BME280_pressure;Samples;Min_cycle;Max_cycle;Signal;HPM_P1;HPM_P2
2022/06/26 00:01:17;;;;;;;6.97;4.55;;;;;;;18.67;95.19;100921.09;5051267;28;20029;-76
2022/06/26 00:03:43;;;;;;;8.57;5.50;;;;;;;18.69;94.78;100920.88;5052252;28;20025;-74
2022/06/26 00:06:08;;;;;;;6.47;5.32;;;;;;;18.73;94.68;100918.66;5029881;28;20035;-76
2022/06/26 00:08:34;;;;;;;8.75;6.30;;;;;;;18.74;94.63;100915.84;5047643;28;20033;-76
2022/06/26 00:10:59;;;;;;;8.20;6.55;;;;;;;18.73;94.43;100919.47;5051410;28;20029;-76
2022/06/26 00:13:25;;;;;;;11.40;5.93;;;;;;;18.68;94.07;100909.59;5052685;28;20535;-76
2022/06/26 00:15:50;;;;;;;9.10;7.22;;;;;;;18.68;94.16;100916.63;5050574;28;20118;-75
2022/06/26 00:18:16;;;;;;;6.93;5.63;;;;;;;18.67;94.17;100917.66;5030677;28;20031;-75
2022/06/26 00:20:41;;;;;;;9.43;6.80;;;;;;;18.65;94.12;100920.50;5047659;28;20400;-75
2022/06/26 00:23:07;;;;;;;10.40;6.20;;;;;;;18.59;94.50;100923.94;5052394;28;20029;-76
2022/06/26 00:25:33;;;;;;;7.72;5.40;;;;;;;18.64;94.77;100923.31;5055847;28;20024;-76
2022/06/26 00:27:59;;;;;;;8.60;7.07;;;;;;;18.62;93.71;100930.59;5046411;28;20049;-75
2022/06/26 00:30:24;;;;;;;9.98;6.82;;;;;;;18.64;93.73;100950.38;5046907;28;20028;-74
2022/06/26 00:32:50;;;;;;;7.97;5.63;;;;;;;18.70;93.19;100945.31;5049531;28;20036;-74
2022/06/26 00:35:16;;;;;;;13.20;7.00;;;;;;;18.70;92.99;100950.56;5051717;28;20044;-74
2022/06/26 00:37:42;;;;;;;9.27;6.53;;;;;;;18.66;93.27;100948.34;5050370;28;20033;-75
2022/06/26 00:40:08;;;;;;;10.68;6.60;;;;;;;18.66;93.06;100955.44;5047563;28;20435;-75
2022/06/26 00:42:34;;;;;;;11.65;5.32;;;;;;;18.59;92.61;100955.47;5048541;28;20036;-75
2022/06/26 00:44:59;;;;;;;6.97;5.75;;;;;;;18.59;92.31;100960.72;5046309;28;20082;-76
2022/06/26 00:47:25;;;;;;;6.85;5.03;;;;;;;18.62;91.79;100947.16;5049382;28;20028;-76
2022/06/26 00:49:51;;;;;;;11.38;6.22;;;;;;;18.58;91.34;100950.41;5048005;28;20063;-76
2022/06/26 00:52:20;;;;;;;8.50;6.35;;;;;;;18.48;91.65;100956.09;5042834;28;20100;-75
2022/06/26 00:54:48;;;;;;;11.02;8.07;;;;;;;18.41;91.32;100961.34;5049014;28;20401;-77
2022/06/26 00:57:14;;;;;;;9.77;8.05;;;;;;;18.31;91.78;100966.19;5050454;28;20036;-77
2022/06/26 00:59:40;;;;;;;13.30;7.93;;;;;;;18.23;92.49;100961.13;5052845;28;20028;-75
2022/06/26 01:02:05;;;;;;;7.32;5.78;;;;;;;18.17;93.14;100968.00;5049281;28;20091;-74
2022/06/26 01:04:31;;;;;;;7.57;5.97;;;;;;;18.19;93.62;100975.69;5046908;28;20047;-75
2022/06/26 01:06:56;;;;;;;7.80;5.55;;;;;;;18.19;94.08;100986.19;5045828;28;20044;-75
2022/06/26 01:09:22;;;;;;;6.68;5.63;;;;;;;18.15;94.24;100983.13;5051602;28;20024;-75
2022/06/26 01:11:48;;;;;;;9.60;5.47;;;;;;;18.19;93.98;100994.03;5034028;28;20080;-75
2022/06/26 01:14:15;;;;;;;8.95;6.20;;;;;;;18.20;93.96;100988.59;5045869;28;20438;-74
2022/06/26 01:16:41;;;;;;;8.95;6.60;;;;;;;18.16;94.44;100989.19;5039448;28;20036;-75
2022/06/26 01:19:09;;;;;;;11.02;6.25;;;;;;;18.17;94.87;100983.75;5041081;28;20114;-75
2022/06/26 01:21:36;;;;;;;8.93;5.95;;;;;;;18.15;95.05;100995.47;5025152;28;20065;-75
2022/06/26 01:24:03;;;;;;;9.85;7.13;;;;;;;18.14;95.28;100997.28;5043011;28;20026;-75
2022/06/26 01:26:29;;;;;;;6.95;5.20;;;;;;;18.13;95.03;100995.66;5040791;28;20570;-74
2022/06/26 01:28:54;;;;;;;8.80;6.72;;;;;;;18.09;95.00;100997.06;5023084;28;20021;-74
2022/06/26 01:31:21;;;;;;;10.52;6.30;;;;;;;18.05;95.25;100991.41;5038767;28;20561;-75
2022/06/26 01:33:47;;;;;;;8.13;6.00;;;;;;;18.07;95.07;100996.47;5041759;28;20050;-74
2022/06/26 01:36:13;;;;;;;11.50;5.85;;;;;;;18.08;94.57;100992.81;5040841;28;20065;-75
2022/06/26 01:38:40;;;;;;;7.95;5.93;;;;;;;18.10;93.98;100996.06;5040895;28;20495;-76
2022/06/26 01:41:06;;;;;;;6.53;5.43;;;;;;;18.13;93.29;101002.72;5044236;28;20107;-76
2022/06/26 01:43:34;;;;;;;9.52;6.00;;;;;;;18.12;93.12;101004.56;5039387;28;20036;-75
2022/06/26 01:46:01;;;;;;;7.35;6.43;;;;;;;18.13;93.11;101006.16;5039313;28;20028;-76
2022/06/26 01:48:31;;;;;;;6.60;5.88;;;;;;;18.12;93.39;101015.06;5041477;28;20035;-76
2022/06/26 01:50:59;;;;;;;9.38;6.32;;;;;;;18.12;94.11;101014.22;5044360;28;20104;-75
2022/06/26 01:53:27;;;;;;;9.18;6.05;;;;;;;18.09;94.93;101016.25;5040015;28;20032;-75
2022/06/26 01:55:53;;;;;;;7.50;6.35;;;;;;;18.08;95.41;101009.41;5045561;28;20033;-75
2022/06/26 01:58:30;;;;;;;8.50;6.22;;;;;;;18.07;95.37;101022.72;5044212;28;20576;-74
2022/06/26 02:00:57;;;;;;;8.27;6.65;;;;;;;18.07;95.13;101034.00;5051876;28;20037;-74
2022/06/26 02:03:26;;;;;;;10.35;7.82;;;;;;;18.04;95.05;101044.88;5043415;28;20327;-75
2022/06/26 02:05:52;;;;;;;8.98;6.38;;;;;;;18.00;95.31;101048.13;5041642;28;20037;-75
2022/06/26 02:08:18;;;;;;;10.20;6.63;;;;;;;17.95;95.77;101045.28;5041076;28;20037;-75
2022/06/26 02:13:42;;;;;;;8.18;5.88;;;;;;;17.94;96.43;101044.47;5041786;28;20033;-75
2022/06/26 02:16:17;;;;;;;8.63;6.13;;;;;;;17.95;96.33;101043.47;5038623;28;20029;-75
2022/06/26 02:18:46;;;;;;;7.50;6.15;;;;;;;17.93;96.24;101029.72;5051784;28;20596;-75
2022/06/26 02:21:14;;;;;;;10.52;6.18;;;;;;;17.95;95.87;101024.28;5024824;28;20509;-75
2022/06/26 02:23:41;;;;;;;7.55;5.72;;;;;;;17.97;95.09;101024.91;5029999;28;20433;-75
2022/06/26 02:26:08;;;;;;;7.85;5.75;;;;;;;17.97;94.74;101027.50;5024327;28;20059;-75
2022/06/26 02:28:35;;;;;;;7.70;6.00;;;;;;;17.98;94.29;101027.31;5040064;28;20385;-74
2022/06/26 02:31:00;;;;;;;8.68;6.03;;;;;;;18.00;93.76;101011.38;5022692;28;20137;-75
2022/06/26 02:33:28;;;;;;;10.43;7.00;;;;;;;17.97;93.55;101017.84;5039627;28;20401;-75
2022/06/26 02:35:55;;;;;;;12.95;7.25;;;;;;;17.92;93.57;101009.75;5025766;28;20041;-75
2022/06/26 02:38:22;;;;;;;10.27;6.70;;;;;;;17.92;93.57;101011.59;5022388;28;20029;-75
2022/06/26 02:40:48;;;;;;;8.30;6.10;;;;;;;17.91;93.43;101029.13;5023487;28;20053;-75
2022/06/26 02:43:14;;;;;;;10.23;6.47;;;;;;;17.92;93.27;101043.06;5022212;28;20124;-75
2022/06/26 02:45:41;;;;;;;8.75;6.50;;;;;;;17.88;93.46;101037.41;5038619;28;20067;-75
2022/06/26 02:48:06;;;;;;;7.05;5.93;;;;;;;17.82;94.18;101022.41;5040242;28;20025;-75
2022/06/26 02:50:32;;;;;;;7.70;6.53;;;;;;;17.81;94.63;101026.06;5024161;28;20106;-75
2022/06/26 02:52:58;;;;;;;8.27;7.00;;;;;;;17.79;94.99;101028.06;5023642;28;20044;-75
2022/06/26 02:55:25;;;;;;;10.23;7.32;;;;;;;17.79;94.95;101031.50;5022521;28;20029;-75
2022/06/26 02:57:50;;;;;;;7.95;6.70;;;;;;;17.78;95.39;101036.94;5025544;28;20037;-75
2022/06/26 03:00:18;;;;;;;6.55;5.70;;;;;;;17.77;95.50;101041.38;5044666;28;20029;-75
2022/06/26 03:02:46;;;;;;;9.30;7.32;;;;;;;17.77;95.59;101048.44;5007734;28;20044;-76
2022/06/26 03:05:12;;;;;;;10.27;8.32;;;;;;;17.75;96.02;101045.22;5039616;28;20244;-75
2022/06/26 03:07:37;;;;;;;10.05;8.02;;;;;;;17.73;96.62;101049.84;5024065;28;20048;-75
2022/06/26 03:10:04;;;;;;;9.13;7.55;;;;;;;17.66;97.41;101063.72;5025415;28;20061;-75
2022/06/26 03:12:30;;;;;;;10.50;7.75;;;;;;;17.64;98.23;101070.19;5026474;28;20049;-75
2022/06/26 03:14:56;;;;;;;9.32;6.60;;;;;;;17.65;98.50;101080.47;5005612;28;20037;-75
2022/06/26 03:17:21;;;;;;;18.70;11.38;;;;;;;17.61;97.97;101079.25;5022517;28;20480;-76
2022/06/26 03:19:48;;;;;;;16.75;11.13;;;;;;;17.61;98.20;101062.69;5007990;28;20074;-75
2022/06/26 03:22:14;;;;;;;12.35;8.68;;;;;;;17.54;98.81;101086.28;5026555;28;20088;-75
2022/06/26 03:24:39;;;;;;;10.70;8.80;;;;;;;17.54;99.44;101094.13;5046202;28;20020;-75
2022/06/26 03:27:05;;;;;;;12.93;8.52;;;;;;;17.56;99.81;101096.56;5042841;28;20031;-75
2022/06/26 03:29:31;;;;;;;12.10;9.10;;;;;;;17.58;99.94;101094.56;5067230;28;20115;-76
2022/06/26 03:31:57;;;;;;;11.45;9.27;;;;;;;17.60;99.91;101098.59;5063899;28;20107;-76
2022/06/26 03:34:23;;;;;;;18.77;10.13;;;;;;;17.59;100.00;101096.16;5040760;28;20029;-76
2022/06/26 03:36:48;;;;;;;12.73;9.27;;;;;;;17.60;100.00;101103.84;5043856;28;20051;-75
2022/06/26 03:39:15;;;;;;;13.70;10.05;;;;;;;17.57;100.00;101104.22;5029953;28;20055;-76
2022/06/26 03:41:41;;;;;;;14.25;8.57;;;;;;;17.58;100.00;101102.44;5045818;28;20029;-76
2022/06/26 03:44:07;;;;;;;11.05;8.20;;;;;;;17.55;100.00;101108.84;5046933;28;20039;-75
2022/06/26 03:46:33;;;;;;;10.10;6.68;;;;;;;17.57;99.96;101121.78;5045646;28;20610;-76
2022/06/26 03:49:02;;;;;;;12.88;9.43;;;;;;;17.54;99.64;101115.13;5043079;28;20049;-76
2022/06/26 03:51:27;;;;;;;15.27;7.72;;;;;;;17.58;98.96;101124.22;5031371;28;20375;-76
2022/06/26 03:53:53;;;;;;;9.30;6.05;;;;;;;17.48;96.72;101115.91;5029132;28;20028;-75
2022/06/26 03:56:18;;;;;;;9.77;5.82;;;;;;;17.43;96.11;101126.16;5031308;28;20032;-75
2022/06/26 03:58:44;;;;;;;15.73;5.45;;;;;;;17.41;96.18;101120.28;5048815;28;20032;-75
2022/06/26 04:01:12;;;;;;;7.25;4.05;;;;;;;17.33;96.38;101113.41;5030966;28;20039;-75
2022/06/26 04:03:38;;;;;;;6.57;3.80;;;;;;;17.25;96.79;101108.28;5031451;28;20384;-75
2022/06/26 04:06:05;;;;;;;9.20;3.88;;;;;;;17.21;96.49;101110.47;5043047;28;20025;-75
2022/06/26 04:08:35;;;;;;;5.72;3.90;;;;;;;17.20;96.73;101121.97;5031840;28;20135;-75
2022/06/26 04:11:04;;;;;;;5.85;3.08;;;;;;;17.25;96.70;101126.63;5046339;28;20273;-75
2022/06/26 04:13:33;;;;;;;4.38;3.38;;;;;;;17.19;96.78;101114.31;5045279;28;20055;-76
2022/06/26 04:15:58;;;;;;;4.70;2.75;;;;;;;17.18;97.25;101118.75;5046147;28;20682;-76
2022/06/26 04:18:24;;;;;;;3.30;2.53;;;;;;;17.23;97.24;101111.09;5060151;28;20028;-76
2022/06/26 04:20:52;;;;;;;3.90;2.28;;;;;;;17.27;96.86;101111.53;5044149;28;20396;-76
2022/06/26 04:23:18;;;;;;;5.10;3.25;;;;;;;17.23;95.83;101111.09;5043855;28;20036;-75
2022/06/26 04:25:45;;;;;;;3.95;3.00;;;;;;;17.20;95.39;101121.97;5046673;28;20039;-76
2022/06/26 04:28:11;;;;;;;9.85;2.92;;;;;;;17.15;95.34;101126.19;5041238;28;20463;-76
2022/06/26 04:30:39;;;;;;;7.50;3.40;;;;;;;17.17;95.35;101132.84;5030725;28;20040;-76
2022/06/26 04:33:05;;;;;;;4.80;2.72;;;;;;;17.09;95.28;101146.09;5043630;28;20024;-76
2022/06/26 04:35:33;;;;;;;7.50;3.00;;;;;;;17.16;95.23;101154.81;5045442;28;20982;-75
2022/06/26 04:37:59;;;;;;;4.78;2.85;;;;;;;17.06;94.70;101152.50;5044363;28;20037;-76
2022/06/26 04:40:25;;;;;;;4.15;2.15;;;;;;;17.02;94.58;101148.66;5041509;28;20520;-76
2022/06/26 04:42:50;;;;;;;3.05;2.00;;;;;;;17.02;94.72;101159.13;5045861;28;20075;-75
2022/06/26 04:45:16;;;;;;;4.03;2.03;;;;;;;17.02;94.26;101158.31;5045610;28;20032;-76
2022/06/26 04:47:43;;;;;;;2.92;2.15;;;;;;;17.01;94.10;101147.03;5027889;28;20114;-76
2022/06/26 04:50:12;;;;;;;4.43;2.25;;;;;;;16.92;93.46;101154.22;5042954;28;20830;-76
2022/06/26 04:52:37;;;;;;;4.25;2.10;;;;;;;16.93;93.82;101157.63;5041863;28;20020;-75
2022/06/26 04:55:04;;;;;;;3.17;1.90;;;;;;;17.00;93.46;101160.31;5043870;28;20266;-75
2022/06/26 04:57:34;;;;;;;5.47;2.00;;;;;;;17.04;92.79;101158.94;5045755;28;20036;-75
2022/06/26 04:59:59;;;;;;;3.17;1.80;;;;;;;17.08;92.70;101165.41;5043568;28;20404;-75
2022/06/26 05:02:25;;;;;;;4.60;1.98;;;;;;;17.13;92.51;101161.22;5043031;28;20036;-76
2022/06/26 05:05:01;;;;;;;5.40;1.90;;;;;;;17.19;92.48;101159.66;5043385;28;20113;-75
2022/06/26 05:07:42;;;;;;;3.92;2.03;;;;;;;17.23;91.83;101165.31;5046681;28;20085;-74
2022/06/26 05:10:08;;;;;;;5.65;2.00;;;;;;;17.27;91.21;101167.38;5047366;28;20419;-75
2022/06/26 05:12:46;;;;;;;5.35;1.88;;;;;;;17.34;91.22;101164.00;5046687;28;20032;-75
2022/06/26 05:15:29;;;;;;;9.18;2.60;;;;;;;17.39;91.38;101174.72;5042937;28;20051;-74
2022/06/26 05:17:54;;;;;;;4.05;2.03;;;;;;;17.46;91.50;101173.75;5063923;28;20029;-75
2022/06/26 05:20:20;;;;;;;5.57;2.38;;;;;;;17.40;91.68;101171.88;5028009;28;20401;-74
2022/06/26 05:22:47;;;;;;;4.13;2.22;;;;;;;17.41;91.10;101175.34;5047496;28;20481;-75
2022/06/26 05:25:14;;;;;;;6.70;2.10;;;;;;;17.59;90.81;101183.50;5028202;28;20036;-75
2022/06/26 05:27:40;;;;;;;7.05;2.25;;;;;;;17.78;90.31;101178.56;5045397;28;20028;-74
2022/06/26 05:30:06;;;;;;;5.63;2.17;;;;;;;17.97;90.18;101180.50;5046839;28;20032;-76
2022/06/26 05:32:37;;;;;;;5.60;2.63;;;;;;;18.05;90.50;101182.16;5047314;28;20031;-74
2022/06/26 05:35:07;;;;;;;7.88;2.67;;;;;;;18.01;89.96;101179.09;5044528;28;20480;-74
2022/06/26 05:37:33;;;;;;;5.85;2.55;;;;;;;18.00;89.51;101187.16;5042540;28;20073;-74
2022/06/26 05:39:59;;;;;;;7.47;2.85;;;;;;;17.92;88.16;101203.06;5044753;28;20496;-76
2022/06/26 05:42:24;;;;;;;4.40;2.70;;;;;;;17.86;88.81;101210.72;5028686;28;20521;-75
2022/06/26 05:44:50;;;;;;;5.30;2.85;;;;;;;17.76;88.75;101212.03;5044970;28;20025;-75
2022/06/26 05:47:18;;;;;;;6.13;2.95;;;;;;;17.69;88.24;101204.13;5042635;28;20041;-74
2022/06/26 05:50:04;;;;;;;4.93;2.72;;;;;;;17.79;87.97;101204.59;5045802;28;20036;-75
2022/06/26 05:52:49;;;;;;;7.35;2.83;;;;;;;18.03;87.51;101199.91;5062703;28;20368;-75
2022/06/26 05:55:33;;;;;;;3.50;2.50;;;;;;;18.13;87.52;101202.16;5036106;28;20480;-74
2022/06/26 05:58:19;;;;;;;9.60;2.38;;;;;;;18.51;85.91;101204.28;5012632;28;20049;-75
2022/06/26 06:01:03;;;;;;;6.15;2.55;;;;;;;18.79;84.37;101204.94;5064284;28;20451;-75
2022/06/26 06:03:30;;;;;;;4.70;2.60;;;;;;;18.99;83.23;101209.44;5044189;28;20033;-75
2022/06/26 06:05:59;;;;;;;8.45;2.67;;;;;;;19.20;82.54;101208.44;5049957;28;20527;-74
2022/06/26 06:08:26;;;;;;;4.80;2.70;;;;;;;19.31;81.97;101210.44;5046651;28;20037;-74
2022/06/26 06:10:52;;;;;;;6.07;2.53;;;;;;;19.41;79.69;101216.06;5031999;28;20061;-77
2022/06/26 06:13:18;;;;;;;5.80;3.17;;;;;;;19.51;79.13;101210.41;5032356;28;20028;-77
2022/06/26 06:15:44;;;;;;;3.60;2.40;;;;;;;19.55;78.12;101222.16;5036009;28;20368;-76
2022/06/26 06:18:12;;;;;;;4.80;2.55;;;;;;;19.45;78.72;101222.53;5034711;28;20024;-75
2022/06/26 06:20:38;;;;;;;11.32;2.92;;;;;;;19.30;79.39;101231.66;5036908;28;20079;-74
2022/06/26 06:23:06;;;;;;;5.63;2.78;;;;;;;19.15;80.20;101227.41;5051710;28;20037;-76
2022/06/26 06:25:32;;;;;;;4.35;2.45;;;;;;;18.94;80.94;101222.38;5062652;28;20059;-74
2022/06/26 06:28:02;;;;;;;7.03;2.33;;;;;;;19.11;81.78;101233.28;5049323;28;20029;-75
2022/06/26 06:30:31;;;;;;;7.78;2.58;;;;;;;19.64;79.20;101231.41;5047988;28;20024;-77
2022/06/26 06:32:57;;;;;;;6.78;3.17;;;;;;;19.94;76.47;101240.69;5039154;28;20548;-77
2022/06/26 06:35:33;;;;;;;6.20;3.03;;;;;;;20.42;73.99;101243.72;5037423;28;20043;-76
2022/06/26 06:37:59;;;;;;;4.45;2.42;;;;;;;20.82;73.03;101247.19;5035320;28;20047;-76
2022/06/26 06:40:25;;;;;;;8.38;2.60;;;;;;;21.10;70.42;101244.16;5046249;28;20425;-77
2022/06/26 06:42:53;;;;;;;11.60;2.38;;;;;;;21.04;68.84;101242.34;5048665;28;20024;-77
2022/06/26 06:45:24;;;;;;;8.73;3.78;;;;;;;21.27;68.51;101257.59;5035314;28;20024;-76
2022/06/26 06:47:53;;;;;;;6.85;4.05;;;;;;;21.63;68.56;101259.50;5031469;28;20036;-75
2022/06/26 06:50:37;;;;;;;4.50;2.00;;;;;;;21.75;67.75;101264.88;5051530;28;20044;-77
2022/06/26 06:53:03;;;;;;;4.13;2.00;;;;;;;22.34;65.42;101260.78;5029529;28;21347;-77
2022/06/26 06:55:28;;;;;;;6.18;2.60;;;;;;;22.82;63.45;101258.28;5065708;28;20043;-76
2022/06/26 06:57:56;;;;;;;4.38;2.40;;;;;;;23.16;60.69;101262.03;5051087;28;20115;-76
2022/06/26 07:00:22;;;;;;;4.53;1.80;;;;;;;23.42;59.53;101260.00;5047778;28;20524;-76
2022/06/26 07:02:48;;;;;;;4.05;1.67;;;;;;;23.11;58.66;101256.63;5048500;28;20064;-76
2022/06/26 07:05:13;;;;;;;4.07;1.85;;;;;;;23.49;58.17;101255.41;5046456;28;20039;-76
2022/06/26 07:07:39;;;;;;;4.15;1.65;;;;;;;23.02;58.10;101255.31;5048931;28;20393;-76
2022/06/26 07:10:04;;;;;;;3.78;1.40;;;;;;;22.61;59.50;101247.19;5048633;28;20039;-76
2022/06/26 07:12:30;;;;;;;2.45;1.65;;;;;;;22.15;61.33;101256.50;5033401;28;20822;-76
2022/06/26 07:14:56;;;;;;;3.65;1.45;;;;;;;22.05;61.12;101261.50;5033246;28;20036;-76
2022/06/26 07:17:22;;;;;;;3.50;1.58;;;;;;;22.06;62.25;101266.56;5050367;28;20066;-76
2022/06/26 07:19:53;;;;;;;2.33;1.40;;;;;;;22.34;61.63;101275.81;5061157;28;20032;-75
2022/06/26 07:22:18;;;;;;;3.55;1.25;;;;;;;22.61;61.30;101270.97;5065081;28;20625;-75
2022/06/26 07:24:44;;;;;;;5.65;1.80;;;;;;;22.79;60.64;101274.59;5048314;28;20032;-75
2022/06/26 07:27:10;;;;;;;4.78;1.63;;;;;;;23.16;57.82;101277.91;5063928;28;20048;-75
2022/06/26 07:29:41;;;;;;;3.67;1.05;;;;;;;23.47;58.13;101284.72;5048427;28;20025;-76
2022/06/26 07:32:06;;;;;;;2.10;1.00;;;;;;;24.18;55.99;101287.28;5033660;28;20028;-78
2022/06/26 07:34:32;;;;;;;2.20;1.25;;;;;;;24.21;55.15;101301.91;5032108;28;20024;-75
2022/06/26 07:37:00;;;;;;;3.75;1.20;;;;;;;24.41;51.83;101294.38;5050955;28;20408;-78
2022/06/26 07:39:25;;;;;;;3.28;1.45;;;;;;;24.76;52.32;101296.06;5033478;28;20044;-75
2022/06/26 07:41:51;;;;;;;3.17;1.20;;;;;;;24.95;51.54;101301.16;5035542;28;20032;-76
2022/06/26 07:44:18;;;;;;;5.72;1.10;;;;;;;25.43;52.39;101302.50;5048819;28;20044;-77
2022/06/26 07:46:44;;;;;;;3.28;1.40;;;;;;;25.66;51.53;101314.75;5053260;28;20484;-77
2022/06/26 07:49:13;;;;;;;3.90;1.45;;;;;;;25.74;49.79;101316.19;5032778;28;20032;-76
2022/06/26 07:51:40;;;;;;;3.13;1.50;;;;;;;25.67;49.41;101316.34;5045932;28;20063;-75
2022/06/26 07:54:05;;;;;;;4.10;1.30;;;;;;;25.79;50.94;101311.75;5047346;28;20032;-75
2022/06/26 07:56:31;;;;;;;4.30;1.20;;;;;;;25.60;50.63;101326.34;5033235;28;20450;-77
2022/06/26 07:58:57;;;;;;;5.28;1.10;;;;;;;25.48;51.41;101326.44;5050677;28;20370;-77
2022/06/26 08:01:23;;;;;;;3.75;1.23;;;;;;;25.04;51.30;101329.69;5048734;28;20552;-76
2022/06/26 08:03:49;;;;;;;4.60;1.40;;;;;;;25.90;50.07;101330.44;5030127;28;20028;-77
2022/06/26 08:06:14;;;;;;;2.58;1.10;;;;;;;26.20;49.06;101338.03;5032958;28;20079;-77
2022/06/26 08:08:40;;;;;;;1.90;1.10;;;;;;;26.32;47.07;101337.91;5044724;28;20140;-75
2022/06/26 08:11:05;;;;;;;2.65;1.08;;;;;;;25.90;46.97;101333.94;5050071;28;20040;-78
2022/06/26 08:13:31;;;;;;;4.35;1.20;;;;;;;25.77;47.87;101329.78;5048465;28;20036;-79
2022/06/26 08:15:57;;;;;;;2.50;1.27;;;;;;;25.79;47.63;101335.63;5044366;28;20495;-76
2022/06/26 08:18:23;;;;;;;6.45;1.27;;;;;;;26.12;46.83;101317.22;5048535;28;20025;-76
2022/06/26 08:20:48;;;;;;;0.90;0.80;;;;;;;26.08;48.77;101321.44;5049119;28;20501;-76
2022/06/26 08:23:14;;;;;;;2.78;1.00;;;;;;;25.75;47.26;101313.28;5070299;28;20426;-77
2022/06/26 08:25:40;;;;;;;1.73;1.08;;;;;;;25.24;49.07;101318.66;5052121;28;21016;-77
2022/06/26 08:28:06;;;;;;;2.95;1.20;;;;;;;24.96;49.58;101316.84;5030448;28;20048;-79
2022/06/26 08:30:32;;;;;;;2.53;0.85;;;;;;;24.75;49.57;101315.69;5045068;28;20225;-78
2022/06/26 08:32:58;;;;;;;1.50;1.15;;;;;;;24.73;50.88;101319.59;5046573;28;20029;-78
2022/06/26 08:35:26;;;;;;;7.35;1.45;;;;;;;25.00;49.72;101325.13;5062701;28;20241;-76
2022/06/26 08:37:52;;;;;;;2.10;1.08;;;;;;;24.99;50.68;101319.00;5043277;28;20044;-77
2022/06/26 08:40:17;;;;;;;3.92;1.05;;;;;;;25.34;48.27;101318.00;5043647;28;20025;-77
2022/06/26 08:42:47;;;;;;;1.77;0.93;;;;;;;25.00;49.03;101315.31;5051143;28;20412;-76
2022/06/26 08:45:15;;;;;;;3.67;0.95;;;;;;;25.37;49.40;101322.00;5052171;28;20500;-77
2022/06/26 08:47:42;;;;;;;2.00;0.75;;;;;;;25.60;46.71;101313.09;5048046;28;20032;-77
2022/06/26 08:50:08;;;;;;;5.13;0.90;;;;;;;25.63;47.50;101307.25;5044198;28;20055;-76
2022/06/26 08:52:35;;;;;;;2.35;1.08;;;;;;;25.84;48.53;101316.31;5065619;28;20082;-76
2022/06/26 08:55:03;;;;;;;1.98;0.90;;;;;;;25.89;46.06;101310.28;5045792;28;20036;-76
2022/06/26 08:57:29;;;;;;;1.77;1.10;;;;;;;25.76;48.51;101312.22;5045530;28;20048;-75
2022/06/26 08:59:54;;;;;;;2.10;0.90;;;;;;;25.96;46.93;101326.88;5057857;28;20037;-76
2022/06/26 09:02:20;;;;;;;2.35;0.95;;;;;;;26.03;47.92;101327.47;5048498;28;20055;-77
2022/06/26 09:04:45;;;;;;;1.75;0.80;;;;;;;26.04;46.00;101321.13;5043429;28;20043;-77
2022/06/26 09:07:11;;;;;;;1.30;0.95;;;;;;;26.32;45.89;101327.28;5066847;28;20032;-77
2022/06/26 09:09:42;;;;;;;1.77;1.08;;;;;;;26.26;45.14;101325.59;5064407;28;20481;-77
2022/06/26 09:12:07;;;;;;;1.95;1.10;;;;;;;25.72;45.57;101329.69;5064661;28;20032;-77
2022/06/26 09:14:33;;;;;;;1.60;0.82;;;;;;;25.45;46.54;101332.25;5051496;28;20029;-77
2022/06/26 09:17:00;;;;;;;5.95;1.05;;;;;;;25.37;47.65;101337.94;5043540;28;20123;-78
2022/06/26 09:19:29;;;;;;;3.90;1.30;;;;;;;25.01;48.34;101343.44;5065962;28;20508;-78
2022/06/26 09:22:12;;;;;;;1.63;0.75;;;;;;;24.87;46.79;101334.19;5031380;28;20089;-76
2022/06/26 09:24:40;;;;;;;2.75;1.10;;;;;;;24.82;47.90;101334.88;5068687;28;20571;-77
2022/06/26 09:27:06;;;;;;;2.45;1.33;;;;;;;24.63;48.92;101341.44;5044819;28;20477;-75
2022/06/26 09:29:32;;;;;;;2.03;1.00;;;;;;;24.62;48.93;101347.75;5048148;28;20043;-78
2022/06/26 09:32:08;;;;;;;2.47;1.30;;;;;;;24.66;49.04;101357.69;5058902;28;20032;-77
2022/06/26 09:34:34;;;;;;;2.42;1.40;;;;;;;24.63;48.82;101352.84;5073765;28;20037;-77
2022/06/26 09:37:05;;;;;;;1.73;0.85;;;;;;;24.67;49.60;101348.66;5070910;28;20028;-76
2022/06/26 09:39:32;;;;;;;2.47;1.05;;;;;;;24.64;48.86;101346.50;5054865;28;20032;-76
2022/06/26 09:42:03;;;;;;;5.55;1.13;;;;;;;25.31;49.93;101344.22;5069009;28;20025;-75
2022/06/26 09:44:28;;;;;;;2.35;1.25;;;;;;;25.49;48.18;101351.16;5069237;28;20024;-77
2022/06/26 09:46:54;;;;;;;2.55;1.38;;;;;;;26.03;48.08;101352.19;5069726;28;20380;-76
2022/06/26 09:49:20;;;;;;;4.15;1.33;;;;;;;26.47;44.29;101342.63;5039719;28;20056;-77
2022/06/26 09:51:46;;;;;;;4.55;1.10;;;;;;;26.55;43.56;101345.59;5051657;28;20029;-76
2022/06/26 09:54:13;;;;;;;3.83;0.98;;;;;;;26.25;43.05;101346.06;5067553;28;20535;-76
2022/06/26 09:56:39;;;;;;;3.22;1.00;;;;;;;25.94;42.40;101347.56;5048897;28;20024;-75
2022/06/26 09:59:07;;;;;;;2.50;1.05;;;;;;;25.46;45.08;101352.41;5069024;28;20035;-75
2022/06/26 10:07:02;;;;;;;3.08;0.90;;;;;;;25.09;45.28;101373.25;5065166;28;20029;-76
2022/06/26 10:09:29;;;;;;;6.15;1.33;;;;;;;25.10;46.11;101365.06;5065589;28;20037;-77
2022/06/26 10:11:58;;;;;;;8.20;1.13;;;;;;;25.27;45.82;101366.97;5048849;28;20043;-77
2022/06/26 10:14:42;;;;;;;1.80;0.93;;;;;;;25.21;46.67;101371.38;5067120;28;20017;-77
2022/06/26 10:17:13;;;;;;;1.98;0.60;;;;;;;25.36;46.60;101369.00;5033430;28;20089;-76
2022/06/26 10:19:51;;;;;;;3.03;1.40;;;;;;;25.30;45.36;101377.09;5046222;28;20041;-76
2022/06/26 10:22:17;;;;;;;2.13;0.95;;;;;;;25.35;45.48;101383.28;5046276;28;20495;-76
2022/06/26 10:24:57;;;;;;;2.78;0.90;;;;;;;24.91;46.35;101371.66;5065692;28;20032;-75
2022/06/26 10:27:28;;;;;;;4.47;1.20;;;;;;;24.70;47.85;101368.63;5045185;28;20032;-75
2022/06/26 10:30:05;;;;;;;2.17;0.95;;;;;;;24.61;47.74;101380.63;5067372;28;20484;-77
2022/06/26 10:32:30;;;;;;;4.60;1.00;;;;;;;24.52;48.72;101384.69;5065736;28;20054;-76
2022/06/26 10:34:56;;;;;;;6.13;1.33;;;;;;;24.58;49.59;101389.88;5068948;28;20591;-76
2022/06/26 10:37:22;;;;;;;3.05;1.05;;;;;;;24.51;49.92;101383.06;5048519;28;20028;-76
2022/06/26 10:39:52;;;;;;;3.78;1.60;;;;;;;24.47;50.49;101390.69;5065697;28;20546;-75
2022/06/26 10:45:11;;;;;;;4.50;1.35;;;;;;;24.56;51.03;101391.13;5063080;28;20496;-77
2022/06/26 10:47:45;;;;;;;4.75;1.30;;;;;;;24.33;50.97;101376.88;5045790;28;21556;-76
2022/06/26 10:50:29;;;;;;;1.83;0.90;;;;;;;24.16;51.65;101379.44;5046852;28;20449;-76
2022/06/26 10:53:11;;;;;;;4.80;1.55;;;;;;;24.26;50.55;101379.66;5065609;28;20028;-74
2022/06/26 10:55:38;;;;;;;4.53;1.15;;;;;;;24.13;51.12;101393.16;5064940;28;20032;-76
2022/06/26 10:58:03;;;;;;;3.88;1.10;;;;;;;23.97;51.68;101388.56;5064012;28;20059;-76
2022/06/26 11:00:29;;;;;;;4.95;1.20;;;;;;;23.90;51.89;101383.38;5064622;28;20435;-76
2022/06/26 11:02:54;;;;;;;2.67;0.98;;;;;;;23.94;51.79;101394.31;5044828;28;20032;-74
2022/06/26 11:05:20;;;;;;;2.15;0.98;;;;;;;23.99;53.19;101389.94;5045780;28;20025;-76
2022/06/26 11:07:51;;;;;;;4.03;0.80;;;;;;;23.96;53.26;101393.06;5046294;28;20044;-75
2022/06/26 11:10:19;;;;;;;1.88;0.88;;;;;;;24.00;53.01;101390.75;5045278;28;20040;-76
2022/06/26 11:12:47;;;;;;;2.60;0.98;;;;;;;23.90;53.11;101400.06;5063995;28;20036;-74
2022/06/26 11:15:27;;;;;;;2.72;1.02;;;;;;;23.46;53.36;101396.88;5065891;28;20416;-76
2022/06/26 11:17:55;;;;;;;2.70;1.00;;;;;;;23.57;54.67;101394.50;5064869;28;20405;-75
2022/06/26 11:23:35;;;;;;;2.75;1.90;;;;;;;23.15;55.02;101399.78;5063644;28;20433;-75
2022/06/26 11:26:08;;;;;;;3.05;1.30;;;;;;;23.22;55.13;101400.50;5021124;28;20059;-77
2022/06/26 11:28:42;;;;;;;2.05;0.90;;;;;;;23.22;56.62;101398.66;5044716;28;20028;-75
2022/06/26 11:31:10;;;;;;;3.95;1.27;;;;;;;23.01;55.39;101402.59;5063383;28;20096;-75
2022/06/26 11:33:38;;;;;;;2.03;1.02;;;;;;;23.06;55.35;101404.63;5059667;28;20021;-76
2022/06/26 11:36:10;;;;;;;2.72;1.10;;;;;;;22.96;56.06;101399.81;5060528;28;20481;-76
2022/06/26 11:38:36;;;;;;;2.65;1.17;;;;;;;22.76;56.93;101399.28;5046121;28;20499;-77
2022/06/26 11:41:07;;;;;;;2.17;1.20;;;;;;;22.94;58.21;101396.59;5064158;28;20079;-76